sensor_id;sensor_type;location;lat;lon;timestamp;temperature;humidity
53272;DHT22;39160;48.580;7.756;2023-01-29T00:01:08;2.20;99.90
53272;DHT22;39160;48.580;7.756;2023-01-29T00:05:59;2.20;99.90
53272;DHT22;39160;48.580;7.756;2023-01-29T00:10:50;2.10;99.90
53272;DHT22;39160;48.580;7.756;2023-01-29T00:15:40;2.10;99.90
53272;DHT22;39160;48.580;7.756;2023-01-29T00:20:31;2.10;99.90
53272;DHT22;39160;48.580;7.756;2023-01-29T00:25:23;2.00;99.90
53272;DHT22;39160;48.580;7.756;2023-01-29T00:30:14;2.00;99.90
53272;DHT22;39160;48.580;7.756;2023-01-29T00:35:08;2.00;99.90
53272;DHT22;39160;48.580;7.756;2023-01-29T00:39:59;2.00;99.90
53272;DHT22;39160;48.580;7.756;2023-01-29T00:44:49;1.80;99.90
53272;DHT22;39160;48.580;7.756;2023-01-29T00:49:49;1.80;99.90
53272;DHT22;39160;48.580;7.756;2023-01-29T00:54:39;1.70;99.90
53272;DHT22;39160;48.580;7.756;2023-01-29T00:59:30;1.70;99.90
53272;DHT22;39160;48.580;7.756;2023-01-29T01:04:21;1.60;99.90
53272;DHT22;39160;48.580;7.756;2023-01-29T01:09:11;1.70;99.90
53272;DHT22;39160;48.580;7.756;2023-01-29T01:14:21;1.70;99.90
53272;DHT22;39160;48.580;7.756;2023-01-29T01:19:12;1.70;99.90
53272;DHT22;39160;48.580;7.756;2023-01-29T01:24:03;1.80;99.90
53272;DHT22;39160;48.580;7.756;2023-01-29T01:28:55;1.80;99.90
53272;DHT22;39160;48.580;7.756;2023-01-29T01:33:45;1.80;99.90
53272;DHT22;39160;48.580;7.756;2023-01-29T01:38:36;1.80;99.90
53272;DHT22;39160;48.580;7.756;2023-01-29T01:43:53;1.80;99.90
53272;DHT22;39160;48.580;7.756;2023-01-29T01:48:48;1.90;99.90
53272;DHT22;39160;48.580;7.756;2023-01-29T01:54:05;1.90;99.90
53272;DHT22;39160;48.580;7.756;2023-01-29T01:58:55;1.80;99.90
53272;DHT22;39160;48.580;7.756;2023-01-29T02:03:59;1.80;99.90
53272;DHT22;39160;48.580;7.756;2023-01-29T02:09:22;1.80;99.90
53272;DHT22;39160;48.580;7.756;2023-01-29T02:14:30;1.80;99.90
53272;DHT22;39160;48.580;7.756;2023-01-29T02:20:02;1.80;99.90
53272;DHT22;39160;48.580;7.756;2023-01-29T02:30:21;1.80;99.90
53272;DHT22;39160;48.580;7.756;2023-01-29T02:40:44;1.80;99.90
53272;DHT22;39160;48.580;7.756;2023-01-29T02:45:45;1.80;99.90
53272;DHT22;39160;48.580;7.756;2023-01-29T02:50:42;1.70;99.90
53272;DHT22;39160;48.580;7.756;2023-01-29T02:56:00;1.70;99.90
53272;DHT22;39160;48.580;7.756;2023-01-29T03:00:50;1.70;99.90
53272;DHT22;39160;48.580;7.756;2023-01-29T03:06:08;1.60;99.90
53272;DHT22;39160;48.580;7.756;2023-01-29T03:11:10;1.70;99.90
53272;DHT22;39160;48.580;7.756;2023-01-29T03:16:17;1.60;99.90
53272;DHT22;39160;48.580;7.756;2023-01-29T03:21:18;1.70;99.90
53272;DHT22;39160;48.580;7.756;2023-01-29T03:26:29;1.70;99.90
53272;DHT22;39160;48.580;7.756;2023-01-29T03:31:38;1.70;99.90
53272;DHT22;39160;48.580;7.756;2023-01-29T03:37:14;1.70;99.90
53272;DHT22;39160;48.580;7.756;2023-01-29T04:03:36;1.70;99.90
53272;DHT22;39160;48.580;7.756;2023-01-29T04:08:31;1.60;99.90
53272;DHT22;39160;48.580;7.756;2023-01-29T04:13:24;1.70;99.90
53272;DHT22;39160;48.580;7.756;2023-01-29T04:18:15;1.70;99.90
53272;DHT22;39160;48.580;7.756;2023-01-29T04:23:16;1.60;99.90
53272;DHT22;39160;48.580;7.756;2023-01-29T04:34:23;1.60;99.90
53272;DHT22;39160;48.580;7.756;2023-01-29T04:39:24;1.60;99.90
53272;DHT22;39160;48.580;7.756;2023-01-29T04:49:26;1.50;99.90
53272;DHT22;39160;48.580;7.756;2023-01-29T04:59:20;1.50;99.90
53272;DHT22;39160;48.580;7.756;2023-01-29T05:04:17;1.40;99.90
53272;DHT22;39160;48.580;7.756;2023-01-29T05:09:08;1.40;99.90
53272;DHT22;39160;48.580;7.756;2023-01-29T05:14:03;1.40;99.90
53272;DHT22;39160;48.580;7.756;2023-01-29T05:18:56;1.30;99.90
53272;DHT22;39160;48.580;7.756;2023-01-29T05:23:46;1.40;99.90
53272;DHT22;39160;48.580;7.756;2023-01-29T05:28:55;1.30;99.90
53272;DHT22;39160;48.580;7.756;2023-01-29T05:33:45;1.20;99.90
53272;DHT22;39160;48.580;7.756;2023-01-29T05:38:36;1.20;99.90
53272;DHT22;39160;48.580;7.756;2023-01-29T05:43:26;1.20;99.90
53272;DHT22;39160;48.580;7.756;2023-01-29T05:48:17;1.20;99.90
53272;DHT22;39160;48.580;7.756;2023-01-29T05:53:08;1.30;99.90
53272;DHT22;39160;48.580;7.756;2023-01-29T05:57:58;1.40;99.90
53272;DHT22;39160;48.580;7.756;2023-01-29T06:02:49;1.40;99.90
53272;DHT22;39160;48.580;7.756;2023-01-29T06:07:40;1.30;99.90
53272;DHT22;39160;48.580;7.756;2023-01-29T06:12:34;1.30;99.90
53272;DHT22;39160;48.580;7.756;2023-01-29T06:17:25;1.30;99.90
53272;DHT22;39160;48.580;7.756;2023-01-29T06:22:15;1.20;99.90
53272;DHT22;39160;48.580;7.756;2023-01-29T06:27:06;1.10;99.90
53272;DHT22;39160;48.580;7.756;2023-01-29T06:31:57;1.20;99.90
53272;DHT22;39160;48.580;7.756;2023-01-29T06:36:47;1.20;99.90
53272;DHT22;39160;48.580;7.756;2023-01-29T06:41:38;1.20;99.90
53272;DHT22;39160;48.580;7.756;2023-01-29T06:46:28;1.30;99.90
53272;DHT22;39160;48.580;7.756;2023-01-29T06:51:19;1.20;99.90
53272;DHT22;39160;48.580;7.756;2023-01-29T06:56:12;1.20;99.90
53272;DHT22;39160;48.580;7.756;2023-01-29T07:01:08;1.20;99.90
53272;DHT22;39160;48.580;7.756;2023-01-29T07:05:59;1.20;99.90
53272;DHT22;39160;48.580;7.756;2023-01-29T07:10:50;1.20;99.90
53272;DHT22;39160;48.580;7.756;2023-01-29T07:15:41;1.20;99.90
53272;DHT22;39160;48.580;7.756;2023-01-29T07:20:40;1.20;99.90
53272;DHT22;39160;48.580;7.756;2023-01-29T07:25:34;1.30;99.90
53272;DHT22;39160;48.580;7.756;2023-01-29T07:30:25;1.20;99.90
53272;DHT22;39160;48.580;7.756;2023-01-29T07:35:16;1.30;99.90
53272;DHT22;39160;48.580;7.756;2023-01-29T07:40:07;1.40;99.90
53272;DHT22;39160;48.580;7.756;2023-01-29T07:45:00;1.50;99.90
53272;DHT22;39160;48.580;7.756;2023-01-29T07:49:51;1.40;99.90
53272;DHT22;39160;48.580;7.756;2023-01-29T07:54:41;1.50;99.90
53272;DHT22;39160;48.580;7.756;2023-01-29T07:59:32;1.50;99.90
53272;DHT22;39160;48.580;7.756;2023-01-29T08:04:23;1.60;99.90
53272;DHT22;39160;48.580;7.756;2023-01-29T08:09:13;1.60;99.90
53272;DHT22;39160;48.580;7.756;2023-01-29T08:14:04;1.70;99.90
53272;DHT22;39160;48.580;7.756;2023-01-29T08:18:55;1.80;99.90
53272;DHT22;39160;48.580;7.756;2023-01-29T08:23:45;1.90;99.90
53272;DHT22;39160;48.580;7.756;2023-01-29T08:28:36;1.80;99.90
53272;DHT22;39160;48.580;7.756;2023-01-29T08:33:28;1.80;99.90
53272;DHT22;39160;48.580;7.756;2023-01-29T08:38:18;1.90;99.90
53272;DHT22;39160;48.580;7.756;2023-01-29T08:43:11;2.00;99.90
53272;DHT22;39160;48.580;7.756;2023-01-29T08:48:02;2.10;99.90
53272;DHT22;39160;48.580;7.756;2023-01-29T08:52:57;2.20;99.90
53272;DHT22;39160;48.580;7.756;2023-01-29T08:57:48;2.10;99.90
53272;DHT22;39160;48.580;7.756;2023-01-29T09:02:39;2.20;99.90
53272;DHT22;39160;48.580;7.756;2023-01-29T09:07:29;2.20;99.90
53272;DHT22;39160;48.580;7.756;2023-01-29T09:12:20;2.30;99.90
53272;DHT22;39160;48.580;7.756;2023-01-29T09:17:11;2.30;99.90
53272;DHT22;39160;48.580;7.756;2023-01-29T09:22:01;2.60;99.90
53272;DHT22;39160;48.580;7.756;2023-01-29T09:26:52;2.60;99.90
53272;DHT22;39160;48.580;7.756;2023-01-29T09:31:46;2.70;99.90
53272;DHT22;39160;48.580;7.756;2023-01-29T09:36:37;2.80;99.90
53272;DHT22;39160;48.580;7.756;2023-01-29T09:41:50;2.80;99.90
53272;DHT22;39160;48.580;7.756;2023-01-29T09:46:46;2.60;99.90
53272;DHT22;39160;48.580;7.756;2023-01-29T09:51:49;2.70;99.90
53272;DHT22;39160;48.580;7.756;2023-01-29T09:56:42;2.70;99.90
53272;DHT22;39160;48.580;7.756;2023-01-29T10:16:59;3.10;99.90
53272;DHT22;39160;48.580;7.756;2023-01-29T10:27:17;3.20;99.90
53272;DHT22;39160;48.580;7.756;2023-01-29T10:32:14;3.10;99.90
53272;DHT22;39160;48.580;7.756;2023-01-29T10:37:17;3.40;99.90
53272;DHT22;39160;48.580;7.756;2023-01-29T11:03:23;3.60;99.90
53272;DHT22;39160;48.580;7.756;2023-01-29T11:08:19;3.80;99.90
53272;DHT22;39160;48.580;7.756;2023-01-29T11:13:13;3.80;99.90
53272;DHT22;39160;48.580;7.756;2023-01-29T11:18:10;3.70;99.90
53272;DHT22;39160;48.580;7.756;2023-01-29T11:23:03;3.80;99.90
53272;DHT22;39160;48.580;7.756;2023-01-29T11:27:56;4.00;99.90
53272;DHT22;39160;48.580;7.756;2023-01-29T11:33:20;3.90;99.90
53272;DHT22;39160;48.580;7.756;2023-01-29T11:38:24;3.80;99.90
53272;DHT22;39160;48.580;7.756;2023-01-29T11:43:30;3.70;99.90
53272;DHT22;39160;48.580;7.756;2023-01-29T11:48:25;3.70;99.90
53272;DHT22;39160;48.580;7.756;2023-01-29T11:53:42;3.80;99.90
53272;DHT22;39160;48.580;7.756;2023-01-29T11:58:33;3.80;99.90
53272;DHT22;39160;48.580;7.756;2023-01-29T12:03:38;3.70;99.90
53272;DHT22;39160;48.580;7.756;2023-01-29T12:08:36;3.80;99.90
53272;DHT22;39160;48.580;7.756;2023-01-29T12:13:33;3.80;99.90
53272;DHT22;39160;48.580;7.756;2023-01-29T12:18:33;3.70;99.90
53272;DHT22;39160;48.580;7.756;2023-01-29T12:33:38;4.00;99.90
53272;DHT22;39160;48.580;7.756;2023-01-29T12:38:30;4.20;99.90
53272;DHT22;39160;48.580;7.756;2023-01-29T12:48:33;4.40;99.90
53272;DHT22;39160;48.580;7.756;2023-01-29T12:58:26;4.40;99.90
53272;DHT22;39160;48.580;7.756;2023-01-29T13:14:05;4.10;99.90
53272;DHT22;39160;48.580;7.756;2023-01-29T13:19:02;4.20;99.90
53272;DHT22;39160;48.580;7.756;2023-01-29T13:24:02;4.40;99.90
53272;DHT22;39160;48.580;7.756;2023-01-29T13:28:54;4.60;99.90
53272;DHT22;39160;48.580;7.756;2023-01-29T13:39:07;4.70;99.90
53272;DHT22;39160;48.580;7.756;2023-01-29T13:44:22;5.00;99.90
53272;DHT22;39160;48.580;7.756;2023-01-29T13:49:43;4.70;99.90
53272;DHT22;39160;48.580;7.756;2023-01-29T13:54:36;4.60;99.90
53272;DHT22;39160;48.580;7.756;2023-01-29T13:59:52;4.70;99.90
53272;DHT22;39160;48.580;7.756;2023-01-29T14:04:43;4.60;99.90
53272;DHT22;39160;48.580;7.756;2023-01-29T14:10:00;4.60;99.90
53272;DHT22;39160;48.580;7.756;2023-01-29T14:15:03;4.50;99.90
53272;DHT22;39160;48.580;7.756;2023-01-29T14:20:17;4.50;99.90
53272;DHT22;39160;48.580;7.756;2023-01-29T14:25:16;4.60;99.90
53272;DHT22;39160;48.580;7.756;2023-01-29T14:30:08;4.50;99.90
53272;DHT22;39160;48.580;7.756;2023-01-29T14:35:17;4.60;99.90
53272;DHT22;39160;48.580;7.756;2023-01-29T14:45:22;4.70;99.90
53272;DHT22;39160;48.580;7.756;2023-01-29T14:55:28;4.50;99.90
53272;DHT22;39160;48.580;7.756;2023-01-29T15:00:27;4.60;99.90
53272;DHT22;39160;48.580;7.756;2023-01-29T15:05:25;4.40;99.90
53272;DHT22;39160;48.580;7.756;2023-01-29T15:20:29;4.20;99.90
53272;DHT22;39160;48.580;7.756;2023-01-29T15:25:20;4.20;99.90
53272;DHT22;39160;48.580;7.756;2023-01-29T15:30:20;4.10;99.90
53272;DHT22;39160;48.580;7.756;2023-01-29T15:35:33;4.00;99.90
53272;DHT22;39160;48.580;7.756;2023-01-29T15:40:25;3.90;99.90
53272;DHT22;39160;48.580;7.756;2023-01-29T15:45:32;3.90;99.90
53272;DHT22;39160;48.580;7.756;2023-01-29T15:50:23;3.80;99.90
53272;DHT22;39160;48.580;7.756;2023-01-29T15:55:14;3.80;99.90
53272;DHT22;39160;48.580;7.756;2023-01-29T16:00:07;3.70;99.90
53272;DHT22;39160;48.580;7.756;2023-01-29T16:04:58;3.60;99.90
53272;DHT22;39160;48.580;7.756;2023-01-29T16:09:50;3.50;99.90
53272;DHT22;39160;48.580;7.756;2023-01-29T16:14:42;3.50;99.90
53272;DHT22;39160;48.580;7.756;2023-01-29T16:19:33;3.50;99.90
53272;DHT22;39160;48.580;7.756;2023-01-29T16:24:24;3.40;99.90
53272;DHT22;39160;48.580;7.756;2023-01-29T16:29:18;3.30;99.90
53272;DHT22;39160;48.580;7.756;2023-01-29T16:34:24;3.30;99.90
53272;DHT22;39160;48.580;7.756;2023-01-29T16:39:23;3.20;99.90
53272;DHT22;39160;48.580;7.756;2023-01-29T16:54:25;3.20;99.90
53272;DHT22;39160;48.580;7.756;2023-01-29T16:59:36;3.10;99.90
53272;DHT22;39160;48.580;7.756;2023-01-29T17:04:28;3.10;99.90
53272;DHT22;39160;48.580;7.756;2023-01-29T17:09:30;3.00;99.90
53272;DHT22;39160;48.580;7.756;2023-01-29T17:14:24;3.00;99.90
53272;DHT22;39160;48.580;7.756;2023-01-29T17:19:18;3.00;99.90
53272;DHT22;39160;48.580;7.756;2023-01-29T17:24:14;3.00;99.90
53272;DHT22;39160;48.580;7.756;2023-01-29T17:29:07;3.00;99.90
53272;DHT22;39160;48.580;7.756;2023-01-29T17:33:59;2.90;99.90
53272;DHT22;39160;48.580;7.756;2023-01-29T17:38:49;2.90;99.90
53272;DHT22;39160;48.580;7.756;2023-01-29T17:43:41;2.90;99.90
53272;DHT22;39160;48.580;7.756;2023-01-29T17:48:33;2.90;99.90
53272;DHT22;39160;48.580;7.756;2023-01-29T17:53:24;2.90;99.90
53272;DHT22;39160;48.580;7.756;2023-01-29T17:58:20;2.80;99.90
53272;DHT22;39160;48.580;7.756;2023-01-29T18:03:12;2.80;99.90
53272;DHT22;39160;48.580;7.756;2023-01-29T18:08:03;2.90;99.90
53272;DHT22;39160;48.580;7.756;2023-01-29T18:12:54;2.80;99.90
53272;DHT22;39160;48.580;7.756;2023-01-29T18:17:45;2.80;99.90
53272;DHT22;39160;48.580;7.756;2023-01-29T18:22:35;2.80;99.90
53272;DHT22;39160;48.580;7.756;2023-01-29T18:27:26;2.80;99.90
53272;DHT22;39160;48.580;7.756;2023-01-29T18:32:17;2.70;99.90
53272;DHT22;39160;48.580;7.756;2023-01-29T18:37:11;2.70;99.90
53272;DHT22;39160;48.580;7.756;2023-01-29T18:42:05;2.60;99.90
53272;DHT22;39160;48.580;7.756;2023-01-29T18:46:55;2.60;99.90
53272;DHT22;39160;48.580;7.756;2023-01-29T18:51:46;2.60;99.90
53272;DHT22;39160;48.580;7.756;2023-01-29T18:56:37;2.60;99.90
53272;DHT22;39160;48.580;7.756;2023-01-29T19:01:27;2.60;99.90
53272;DHT22;39160;48.580;7.756;2023-01-29T19:06:21;2.50;99.90
53272;DHT22;39160;48.580;7.756;2023-01-29T19:11:12;2.50;99.90
53272;DHT22;39160;48.580;7.756;2023-01-29T19:16:10;2.40;99.90
53272;DHT22;39160;48.580;7.756;2023-01-29T19:21:12;2.40;99.90
53272;DHT22;39160;48.580;7.756;2023-01-29T19:26:03;2.40;99.90
53272;DHT22;39160;48.580;7.756;2023-01-29T19:30:57;2.40;99.90
53272;DHT22;39160;48.580;7.756;2023-01-29T19:35:48;2.30;99.90
53272;DHT22;39160;48.580;7.756;2023-01-29T19:40:39;2.20;99.90
53272;DHT22;39160;48.580;7.756;2023-01-29T19:45:29;2.20;99.90
53272;DHT22;39160;48.580;7.756;2023-01-29T19:50:20;2.20;99.90
53272;DHT22;39160;48.580;7.756;2023-01-29T19:55:11;2.40;99.90
53272;DHT22;39160;48.580;7.756;2023-01-29T20:00:05;2.30;99.90
53272;DHT22;39160;48.580;7.756;2023-01-29T20:04:57;2.30;99.90
53272;DHT22;39160;48.580;7.756;2023-01-29T20:09:49;2.30;99.90
53272;DHT22;39160;48.580;7.756;2023-01-29T20:14:40;2.20;99.90
53272;DHT22;39160;48.580;7.756;2023-01-29T20:19:38;2.10;99.90
53272;DHT22;39160;48.580;7.756;2023-01-29T20:24:28;2.20;99.90
53272;DHT22;39160;48.580;7.756;2023-01-29T20:29:21;2.10;99.90
53272;DHT22;39160;48.580;7.756;2023-01-29T20:34:11;2.10;99.90
53272;DHT22;39160;48.580;7.756;2023-01-29T20:39:02;2.10;99.90
53272;DHT22;39160;48.580;7.756;2023-01-29T20:43:53;2.10;99.90
53272;DHT22;39160;48.580;7.756;2023-01-29T20:48:44;2.10;99.90
53272;DHT22;39160;48.580;7.756;2023-01-29T20:53:35;2.00;99.90
53272;DHT22;39160;48.580;7.756;2023-01-29T20:58:26;2.00;99.90
53272;DHT22;39160;48.580;7.756;2023-01-29T21:03:16;2.00;99.90
53272;DHT22;39160;48.580;7.756;2023-01-29T21:08:07;1.90;99.90
53272;DHT22;39160;48.580;7.756;2023-01-29T21:12:58;1.90;99.90
53272;DHT22;39160;48.580;7.756;2023-01-29T21:17:48;1.90;99.90
53272;DHT22;39160;48.580;7.756;2023-01-29T21:22:39;1.90;99.90
53272;DHT22;39160;48.580;7.756;2023-01-29T21:27:33;1.80;99.90
53272;DHT22;39160;48.580;7.756;2023-01-29T21:32:23;1.80;99.90
53272;DHT22;39160;48.580;7.756;2023-01-29T21:37:14;1.70;99.90
53272;DHT22;39160;48.580;7.756;2023-01-29T21:42:05;1.80;99.90
53272;DHT22;39160;48.580;7.756;2023-01-29T21:47:14;1.70;99.90
53272;DHT22;39160;48.580;7.756;2023-01-29T21:52:05;1.70;99.90
53272;DHT22;39160;48.580;7.756;2023-01-29T21:56:55;1.60;99.90
53272;DHT22;39160;48.580;7.756;2023-01-29T22:01:46;1.60;99.90
53272;DHT22;39160;48.580;7.756;2023-01-29T22:06:37;1.50;99.90
53272;DHT22;39160;48.580;7.756;2023-01-29T22:11:28;1.60;99.90
53272;DHT22;39160;48.580;7.756;2023-01-29T22:16:18;1.60;99.90
53272;DHT22;39160;48.580;7.756;2023-01-29T22:21:09;1.50;99.90
53272;DHT22;39160;48.580;7.756;2023-01-29T22:26:05;1.50;99.90
53272;DHT22;39160;48.580;7.756;2023-01-29T22:31:00;1.60;99.90
53272;DHT22;39160;48.580;7.756;2023-01-29T22:35:55;1.50;99.90
53272;DHT22;39160;48.580;7.756;2023-01-29T22:40:52;1.80;99.90
53272;DHT22;39160;48.580;7.756;2023-01-29T22:45:43;1.60;99.90
53272;DHT22;39160;48.580;7.756;2023-01-29T22:50:34;1.60;99.90
53272;DHT22;39160;48.580;7.756;2023-01-29T22:55:25;1.60;99.90
53272;DHT22;39160;48.580;7.756;2023-01-29T23:00:16;1.50;99.90
53272;DHT22;39160;48.580;7.756;2023-01-29T23:05:07;1.40;99.90
53272;DHT22;39160;48.580;7.756;2023-01-29T23:09:58;1.40;99.90
53272;DHT22;39160;48.580;7.756;2023-01-29T23:14:49;1.30;99.90
53272;DHT22;39160;48.580;7.756;2023-01-29T23:19:39;1.30;99.90
53272;DHT22;39160;48.580;7.756;2023-01-29T23:24:30;1.20;99.90
53272;DHT22;39160;48.580;7.756;2023-01-29T23:29:21;1.10;99.90
53272;DHT22;39160;48.580;7.756;2023-01-29T23:34:11;1.10;99.90
53272;DHT22;39160;48.580;7.756;2023-01-29T23:39:03;1.10;99.90
53272;DHT22;39160;48.580;7.756;2023-01-29T23:43:53;1.00;99.90
53272;DHT22;39160;48.580;7.756;2023-01-29T23:48:44;1.10;99.90
53272;DHT22;39160;48.580;7.756;2023-01-29T23:53:35;1.00;99.90
53272;DHT22;39160;48.580;7.756;2023-01-29T23:58:27;1.00;99.90
